Home   Weather   USA   Gary   Past weeks
Flag for USA

Past Weather in Gary, Indiana, USA — Yesterday and Last 2 Weeks

Currently: 70 °F. Light rain. Broken clouds. (Weather station: Lansing Municipal Airport, USA). See more current weather

Past Weather in Gary — Graph

°F

Gary Temperature Yesterday

Maximum temperature yesterday: 78 °F (at 5:55 pm)
Minimum temperature yesterday: 63 °F (at 3:35 am)
Average temperature yesterday: 68 °F

High & Low Weather Summary for the Past Weeks

 TemperatureHumidityPressure
High90 °F (Jun 11, 3:55 pm)100% (Jun 10, 4:35 am)30.15 "Hg (Jun 10, 4:35 am)
Low48 °F (Jun 22, 5:15 am)29% (Jun 16, 6:15 pm)29.48 "Hg (Jun 20, 10:55 pm)
Average72 °F65%29.92 "Hg
* Reported Jun 9 1:35 pm — Jun 24 1:15 pm, Gary. Weather by CustomWeather, © 2021

Note: Actual official high and low records may vary slightly from our data, if they occured in-between our weather recording intervals... More about our weather records

Gary Weather History for the Previous 24 Hours

Scroll right to see more
 ConditionsComfort  
Time TempWeatherWind HumidityBarometerVisibility
1:15 pm
Thu, Jun 24
70 °FRain. Broken clouds.16 mph83%30.01 "Hg10 mi
12:55 pm70 °FThunderstorms. Cloudy.13 mph78%30.00 "Hg10 mi
12:35 pm71 °FThunderstorms. More clouds than sun.10 mph74%30.01 "Hg10 mi
12:15 pm72 °FThunderstorms. Overcast.16 mph72%30.01 "Hg10 mi
11:55 am75 °FThunderstorms. Overcast.16 mph60%29.99 "Hg10 mi
11:35 am76 °FThundershowers. Cloudy.13 mph58%29.99 "Hg10 mi
11:15 am78 °FThundershowers. More clouds than sun.20 mph57%29.99 "Hg10 mi
10:55 am78 °FBroken clouds.16 mph56%29.99 "Hg10 mi
10:35 am75 °FCloudy.15 mph58%29.99 "Hg10 mi
10:15 am74 °FMore clouds than sun.13 mph59%30.00 "Hg10 mi
9:55 am74 °FOvercast.14 mph59%30.00 "Hg10 mi
9:35 am73 °FOvercast.13 mph59%29.99 "Hg10 mi
9:15 am72 °FOvercast.14 mph61%29.98 "Hg10 mi
8:55 am71 °FOvercast.13 mph62%29.98 "Hg10 mi
8:35 am71 °FPartly sunny.16 mph61%30.00 "Hg10 mi
8:15 am70 °FSunny.13 mph60%30.01 "Hg10 mi
7:55 am69 °FSunny.15 mph61%30.01 "Hg10 mi
7:35 am68 °FScattered clouds.15 mph62%30.01 "Hg10 mi
7:15 am66 °FPartly sunny.14 mph64%30.01 "Hg10 mi
6:55 am66 °FPartly sunny.14 mph64%30.01 "Hg10 mi
6:35 am65 °FSunny.10 mph66%30.01 "Hg10 mi
6:15 am64 °FSunny.10 mph65%30.01 "Hg10 mi
5:55 am64 °FSunny.12 mph67%30.00 "Hg10 mi
5:35 am63 °FSunny.8 mph68%30.02 "Hg10 mi
5:15 am64 °FSunny.9 mph67%30.03 "Hg10 mi
4:55 am64 °FSunny.9 mph66%30.03 "Hg10 mi
4:35 am64 °FSunny.9 mph67%30.02 "Hg10 mi
4:15 am64 °FClear.10 mph66%30.01 "Hg10 mi
3:55 am64 °FClear.12 mph66%30.01 "Hg10 mi
3:35 am64 °FClear.13 mph66%30.01 "Hg10 mi
3:15 am64 °FClear.10 mph66%30.03 "Hg10 mi
2:55 am64 °FClear.9 mph68%30.03 "Hg10 mi
2:35 am64 °FClear.9 mph67%30.03 "Hg10 mi
2:15 am64 °FClear.9 mph66%30.03 "Hg10 mi
1:55 am64 °FClear.10 mph66%30.03 "Hg10 mi
1:35 am65 °FClear.9 mph64%30.04 "Hg10 mi
1:15 am65 °FClear.10 mph63%30.04 "Hg10 mi
12:55 am65 °FClear.8 mph62%30.04 "Hg10 mi
12:35 am66 °FClear.8 mph62%30.04 "Hg10 mi
12:15 am66 °FClear.8 mph61%30.04 "Hg10 mi
11:55 pm
Wed, Jun 23
67 °FPassing clouds.9 mph59%30.04 "Hg10 mi
11:35 pm68 °FPassing clouds.10 mph58%30.04 "Hg10 mi
11:15 pm68 °FClear.12 mph59%30.03 "Hg10 mi
10:55 pm68 °FClear.9 mph61%30.03 "Hg10 mi
10:35 pm67 °FClear.10 mph62%30.04 "Hg10 mi
10:15 pm68 °FClear.9 mph61%30.04 "Hg10 mi
9:55 pm68 °FPassing clouds.12 mph62%30.04 "Hg10 mi
9:35 pm70 °FClear.10 mph56%30.03 "Hg10 mi
9:15 pm70 °FClear.10 mph54%30.03 "Hg10 mi
8:55 pm71 °FClear.9 mph53%30.02 "Hg10 mi
8:35 pm72 °FClear.10 mph51%30.02 "Hg10 mi
8:15 pm73 °FClear.14 mph50%30.02 "Hg10 mi
7:55 pm74 °FClear.14 mph50%30.01 "Hg10 mi
7:35 pm75 °FClear.16 mph48%30.01 "Hg10 mi
6:55 pm76 °FScattered clouds.15 mph48%30.01 "Hg10 mi
6:35 pm77 °FPartly sunny.18 mph47%30.01 "Hg10 mi
6:15 pm76 °FPartly sunny.17 mph46%30.02 "Hg10 mi
5:55 pm78 °FPartly sunny.21 mph45%30.02 "Hg10 mi
5:35 pm76 °FScattered clouds.23 mph44%30.02 "Hg10 mi
5:15 pm77 °FSunny.20 mph45%30.02 "Hg10 mi
4:55 pm77 °FSunny.20 mph44%30.02 "Hg10 mi
4:35 pm77 °FScattered clouds.16 mph46%30.02 "Hg10 mi
4:15 pm77 °FScattered clouds.16 mph50%30.02 "Hg10 mi
3:55 pm76 °FScattered clouds.17 mph53%30.03 "Hg10 mi
3:35 pm73 °FScattered clouds.15 mph58%30.03 "Hg10 mi
3:15 pm71 °FScattered clouds.14 mph62%30.04 "Hg10 mi
2:35 pm68 °FOvercast.12 mph63%30.05 "Hg10 mi
2:15 pm68 °FOvercast.10 mph60%30.06 "Hg10 mi
Weather by CustomWeather, © 2021

See weather overview